sensor_id;sensor_type;location;lat;lon;timestamp;temperature;humidity
37408;DHT22;24866;50.248;8.252;2022-09-21T00:00:44;7.70;99.90
37408;DHT22;24866;50.248;8.252;2022-09-21T00:03:14;7.60;99.90
37408;DHT22;24866;50.248;8.252;2022-09-21T00:05:45;7.60;99.90
37408;DHT22;24866;50.248;8.252;2022-09-21T00:08:14;7.70;99.90
37408;DHT22;24866;50.248;8.252;2022-09-21T00:10:49;7.90;99.90
37408;DHT22;24866;50.248;8.252;2022-09-21T00:13:20;7.70;99.90
37408;DHT22;24866;50.248;8.252;2022-09-21T00:15:51;7.80;99.90
37408;DHT22;24866;50.248;8.252;2022-09-21T00:18:21;7.70;99.90
37408;DHT22;24866;50.248;8.252;2022-09-21T00:20:51;7.40;99.90
37408;DHT22;24866;50.248;8.252;2022-09-21T00:23:21;7.40;99.90
37408;DHT22;24866;50.248;8.252;2022-09-21T00:26:03;7.10;99.90
37408;DHT22;24866;50.248;8.252;2022-09-21T00:28:33;7.20;99.90
37408;DHT22;24866;50.248;8.252;2022-09-21T00:31:05;7.20;99.90
37408;DHT22;24866;50.248;8.252;2022-09-21T00:33:35;7.10;99.90
37408;DHT22;24866;50.248;8.252;2022-09-21T00:36:07;7.00;99.90
37408;DHT22;24866;50.248;8.252;2022-09-21T00:38:37;7.10;99.90
37408;DHT22;24866;50.248;8.252;2022-09-21T00:41:09;7.20;99.90
37408;DHT22;24866;50.248;8.252;2022-09-21T00:43:44;7.10;99.90
37408;DHT22;24866;50.248;8.252;2022-09-21T00:46:20;7.20;99.90
37408;DHT22;24866;50.248;8.252;2022-09-21T00:48:54;7.00;99.90
37408;DHT22;24866;50.248;8.252;2022-09-21T00:51:24;6.80;99.90
37408;DHT22;24866;50.248;8.252;2022-09-21T00:54:01;6.80;99.90
37408;DHT22;24866;50.248;8.252;2022-09-21T00:56:33;7.00;99.90
37408;DHT22;24866;50.248;8.252;2022-09-21T00:59:05;7.10;99.90
37408;DHT22;24866;50.248;8.252;2022-09-21T01:01:35;7.00;99.90
37408;DHT22;24866;50.248;8.252;2022-09-21T01:04:06;6.90;99.90
37408;DHT22;24866;50.248;8.252;2022-09-21T01:06:37;6.80;99.90
37408;DHT22;24866;50.248;8.252;2022-09-21T01:09:07;6.90;99.90
37408;DHT22;24866;50.248;8.252;2022-09-21T01:11:45;6.90;99.90
37408;DHT22;24866;50.248;8.252;2022-09-21T01:14:42;6.80;99.90
37408;DHT22;24866;50.248;8.252;2022-09-21T01:17:20;6.90;99.90
37408;DHT22;24866;50.248;8.252;2022-09-21T01:23:08;6.80;99.90
37408;DHT22;24866;50.248;8.252;2022-09-21T01:25:52;6.90;99.90
37408;DHT22;24866;50.248;8.252;2022-09-21T01:28:36;7.00;99.90
37408;DHT22;24866;50.248;8.252;2022-09-21T01:31:14;6.80;99.90
37408;DHT22;24866;50.248;8.252;2022-09-21T01:33:48;6.60;99.90
37408;DHT22;24866;50.248;8.252;2022-09-21T01:36:22;6.50;99.90
37408;DHT22;24866;50.248;8.252;2022-09-21T01:38:56;6.60;99.90
37408;DHT22;24866;50.248;8.252;2022-09-21T01:41:28;6.60;99.90
37408;DHT22;24866;50.248;8.252;2022-09-21T01:44:03;6.70;99.90
37408;DHT22;24866;50.248;8.252;2022-09-21T01:46:37;6.70;99.90
37408;DHT22;24866;50.248;8.252;2022-09-21T01:49:10;6.70;99.90
37408;DHT22;24866;50.248;8.252;2022-09-21T01:51:44;6.70;99.90
37408;DHT22;24866;50.248;8.252;2022-09-21T01:54:19;6.80;99.90
37408;DHT22;24866;50.248;8.252;2022-09-21T01:56:54;6.50;99.90
37408;DHT22;24866;50.248;8.252;2022-09-21T01:59:27;6.40;99.90
37408;DHT22;24866;50.248;8.252;2022-09-21T02:02:05;6.50;99.90
37408;DHT22;24866;50.248;8.252;2022-09-21T02:04:38;6.60;99.90
37408;DHT22;24866;50.248;8.252;2022-09-21T02:07:08;6.50;99.90
37408;DHT22;24866;50.248;8.252;2022-09-21T02:09:38;6.40;99.90
37408;DHT22;24866;50.248;8.252;2022-09-21T02:12:10;6.30;99.90
37408;DHT22;24866;50.248;8.252;2022-09-21T02:14:40;6.40;99.90
37408;DHT22;24866;50.248;8.252;2022-09-21T02:17:25;6.40;99.90
37408;DHT22;24866;50.248;8.252;2022-09-21T02:20:06;6.30;99.90
37408;DHT22;24866;50.248;8.252;2022-09-21T02:22:42;6.30;99.90
37408;DHT22;24866;50.248;8.252;2022-09-21T02:25:20;6.30;99.90
37408;DHT22;24866;50.248;8.252;2022-09-21T02:27:54;6.30;99.90
37408;DHT22;24866;50.248;8.252;2022-09-21T02:30:25;6.40;99.90
37408;DHT22;24866;50.248;8.252;2022-09-21T02:33:01;6.50;99.90
37408;DHT22;24866;50.248;8.252;2022-09-21T02:35:38;6.50;99.90
37408;DHT22;24866;50.248;8.252;2022-09-21T02:38:13;6.50;99.90
37408;DHT22;24866;50.248;8.252;2022-09-21T02:40:50;6.40;99.90
37408;DHT22;24866;50.248;8.252;2022-09-21T02:43:25;6.30;99.90
37408;DHT22;24866;50.248;8.252;2022-09-21T02:46:00;6.20;99.90
37408;DHT22;24866;50.248;8.252;2022-09-21T02:48:36;6.50;99.90
37408;DHT22;24866;50.248;8.252;2022-09-21T02:51:09;6.60;99.90
37408;DHT22;24866;50.248;8.252;2022-09-21T02:53:41;6.70;99.90
37408;DHT22;24866;50.248;8.252;2022-09-21T02:56:14;6.70;99.90
37408;DHT22;24866;50.248;8.252;2022-09-21T02:58:44;6.80;99.90
37408;DHT22;24866;50.248;8.252;2022-09-21T03:01:16;6.90;99.90
37408;DHT22;24866;50.248;8.252;2022-09-21T03:03:48;6.90;99.90
37408;DHT22;24866;50.248;8.252;2022-09-21T03:06:18;7.00;99.90
37408;DHT22;24866;50.248;8.252;2022-09-21T03:08:49;7.00;99.90
37408;DHT22;24866;50.248;8.252;2022-09-21T03:11:19;7.00;99.90
37408;DHT22;24866;50.248;8.252;2022-09-21T03:13:49;7.00;99.90
37408;DHT22;24866;50.248;8.252;2022-09-21T03:16:19;7.10;99.90
37408;DHT22;24866;50.248;8.252;2022-09-21T03:18:51;7.00;99.90
37408;DHT22;24866;50.248;8.252;2022-09-21T03:21:21;6.90;99.90
37408;DHT22;24866;50.248;8.252;2022-09-21T03:23:51;7.00;99.90
37408;DHT22;24866;50.248;8.252;2022-09-21T03:26:21;6.90;99.90
37408;DHT22;24866;50.248;8.252;2022-09-21T03:28:51;6.90;99.90
37408;DHT22;24866;50.248;8.252;2022-09-21T03:31:22;6.90;99.90
37408;DHT22;24866;50.248;8.252;2022-09-21T03:33:53;6.90;99.90
37408;DHT22;24866;50.248;8.252;2022-09-21T03:36:23;7.00;99.90
37408;DHT22;24866;50.248;8.252;2022-09-21T03:38:53;7.00;99.90
37408;DHT22;24866;50.248;8.252;2022-09-21T03:41:23;7.10;99.90
37408;DHT22;24866;50.248;8.252;2022-09-21T03:43:53;7.00;99.90
37408;DHT22;24866;50.248;8.252;2022-09-21T03:46:23;7.00;99.90
37408;DHT22;24866;50.248;8.252;2022-09-21T03:48:54;6.80;99.90
37408;DHT22;24866;50.248;8.252;2022-09-21T03:51:24;6.80;99.90
37408;DHT22;24866;50.248;8.252;2022-09-21T03:53:54;6.80;99.90
37408;DHT22;24866;50.248;8.252;2022-09-21T03:56:27;6.80;99.90
37408;DHT22;24866;50.248;8.252;2022-09-21T03:58:57;6.60;99.90
37408;DHT22;24866;50.248;8.252;2022-09-21T04:01:27;6.50;99.90
37408;DHT22;24866;50.248;8.252;2022-09-21T04:03:58;6.60;99.90
37408;DHT22;24866;50.248;8.252;2022-09-21T04:06:28;6.40;99.90
37408;DHT22;24866;50.248;8.252;2022-09-21T04:08:58;6.50;99.90
37408;DHT22;24866;50.248;8.252;2022-09-21T04:11:30;6.40;99.90
37408;DHT22;24866;50.248;8.252;2022-09-21T04:14:00;6.40;99.90
37408;DHT22;24866;50.248;8.252;2022-09-21T04:16:30;6.40;99.90
37408;DHT22;24866;50.248;8.252;2022-09-21T04:19:02;6.60;99.90
37408;DHT22;24866;50.248;8.252;2022-09-21T04:21:32;6.70;99.90
37408;DHT22;24866;50.248;8.252;2022-09-21T04:24:02;6.80;99.90
37408;DHT22;24866;50.248;8.252;2022-09-21T04:26:33;6.60;99.90
37408;DHT22;24866;50.248;8.252;2022-09-21T04:29:03;6.60;99.90
37408;DHT22;24866;50.248;8.252;2022-09-21T04:31:33;6.60;99.90
37408;DHT22;24866;50.248;8.252;2022-09-21T04:34:05;6.70;99.90
37408;DHT22;24866;50.248;8.252;2022-09-21T04:36:35;6.80;99.90
37408;DHT22;24866;50.248;8.252;2022-09-21T04:39:05;6.70;99.90
37408;DHT22;24866;50.248;8.252;2022-09-21T04:41:35;6.80;99.90
37408;DHT22;24866;50.248;8.252;2022-09-21T04:44:05;6.90;99.90
37408;DHT22;24866;50.248;8.252;2022-09-21T04:46:35;7.00;99.90
37408;DHT22;24866;50.248;8.252;2022-09-21T04:49:07;7.00;99.90
37408;DHT22;24866;50.248;8.252;2022-09-21T04:51:38;6.90;99.90
37408;DHT22;24866;50.248;8.252;2022-09-21T04:54:08;6.90;99.90
37408;DHT22;24866;50.248;8.252;2022-09-21T04:56:38;6.90;99.90
37408;DHT22;24866;50.248;8.252;2022-09-21T04:59:08;6.90;99.90
37408;DHT22;24866;50.248;8.252;2022-09-21T05:01:38;6.90;99.90
37408;DHT22;24866;50.248;8.252;2022-09-21T05:04:09;6.70;99.90
37408;DHT22;24866;50.248;8.252;2022-09-21T05:06:39;6.30;99.90
37408;DHT22;24866;50.248;8.252;2022-09-21T05:09:09;6.40;99.90
37408;DHT22;24866;50.248;8.252;2022-09-21T05:11:56;6.50;99.90
37408;DHT22;24866;50.248;8.252;2022-09-21T05:14:26;6.40;99.90
37408;DHT22;24866;50.248;8.252;2022-09-21T05:16:56;6.30;99.90
37408;DHT22;24866;50.248;8.252;2022-09-21T05:19:27;6.40;99.90
37408;DHT22;24866;50.248;8.252;2022-09-21T05:21:57;6.60;99.90
37408;DHT22;24866;50.248;8.252;2022-09-21T05:24:27;6.50;99.90
37408;DHT22;24866;50.248;8.252;2022-09-21T05:26:56;6.40;99.90
37408;DHT22;24866;50.248;8.252;2022-09-21T05:29:27;6.30;99.90
37408;DHT22;24866;50.248;8.252;2022-09-21T05:32:02;6.20;99.90
37408;DHT22;24866;50.248;8.252;2022-09-21T05:34:42;6.30;99.90
37408;DHT22;24866;50.248;8.252;2022-09-21T05:37:42;6.30;99.90
37408;DHT22;24866;50.248;8.252;2022-09-21T05:40:13;6.10;99.90
37408;DHT22;24866;50.248;8.252;2022-09-21T05:42:44;6.30;99.90
37408;DHT22;24866;50.248;8.252;2022-09-21T05:45:16;6.10;99.90
37408;DHT22;24866;50.248;8.252;2022-09-21T05:47:54;6.10;99.90
37408;DHT22;24866;50.248;8.252;2022-09-21T05:50:33;6.00;99.90
37408;DHT22;24866;50.248;8.252;2022-09-21T05:53:23;6.20;99.90
37408;DHT22;24866;50.248;8.252;2022-09-21T05:55:58;6.30;99.90
37408;DHT22;24866;50.248;8.252;2022-09-21T05:58:34;6.40;99.90
37408;DHT22;24866;50.248;8.252;2022-09-21T06:01:15;6.40;99.90
37408;DHT22;24866;50.248;8.252;2022-09-21T06:03:48;6.30;99.90
37408;DHT22;24866;50.248;8.252;2022-09-21T06:06:19;6.20;99.90
37408;DHT22;24866;50.248;8.252;2022-09-21T06:08:49;6.30;99.90
37408;DHT22;24866;50.248;8.252;2022-09-21T06:11:19;6.50;99.90
37408;DHT22;24866;50.248;8.252;2022-09-21T06:13:49;6.70;99.90
37408;DHT22;24866;50.248;8.252;2022-09-21T06:16:20;6.60;99.90
37408;DHT22;24866;50.248;8.252;2022-09-21T06:18:49;6.60;99.90
37408;DHT22;24866;50.248;8.252;2022-09-21T06:21:21;6.50;99.90
37408;DHT22;24866;50.248;8.252;2022-09-21T06:23:50;6.50;99.90
37408;DHT22;24866;50.248;8.252;2022-09-21T06:26:20;6.30;99.90
37408;DHT22;24866;50.248;8.252;2022-09-21T06:28:50;6.60;99.90
37408;DHT22;24866;50.248;8.252;2022-09-21T06:31:20;6.70;99.90
37408;DHT22;24866;50.248;8.252;2022-09-21T06:33:50;6.70;99.90
37408;DHT22;24866;50.248;8.252;2022-09-21T06:36:22;6.80;99.90
37408;DHT22;24866;50.248;8.252;2022-09-21T06:38:52;6.90;99.90
37408;DHT22;24866;50.248;8.252;2022-09-21T06:41:22;6.80;99.90
37408;DHT22;24866;50.248;8.252;2022-09-21T06:43:53;6.70;99.90
37408;DHT22;24866;50.248;8.252;2022-09-21T06:46:24;6.60;99.90
37408;DHT22;24866;50.248;8.252;2022-09-21T06:48:54;6.50;99.90
37408;DHT22;24866;50.248;8.252;2022-09-21T06:51:25;6.50;99.90
37408;DHT22;24866;50.248;8.252;2022-09-21T06:53:56;6.40;99.90
37408;DHT22;24866;50.248;8.252;2022-09-21T06:56:28;6.60;99.90
37408;DHT22;24866;50.248;8.252;2022-09-21T06:58:58;6.70;99.90
37408;DHT22;24866;50.248;8.252;2022-09-21T07:01:28;6.90;99.90
37408;DHT22;24866;50.248;8.252;2022-09-21T07:03:58;7.10;99.90
37408;DHT22;24866;50.248;8.252;2022-09-21T07:06:30;7.20;99.90
37408;DHT22;24866;50.248;8.252;2022-09-21T07:08:59;7.20;99.90
37408;DHT22;24866;50.248;8.252;2022-09-21T07:11:30;6.80;99.90
37408;DHT22;24866;50.248;8.252;2022-09-21T07:14:00;6.70;99.90
37408;DHT22;24866;50.248;8.252;2022-09-21T07:16:31;6.70;99.90
37408;DHT22;24866;50.248;8.252;2022-09-21T07:19:02;6.80;99.90
37408;DHT22;24866;50.248;8.252;2022-09-21T07:21:34;6.80;99.90
37408;DHT22;24866;50.248;8.252;2022-09-21T07:24:04;6.60;99.90
37408;DHT22;24866;50.248;8.252;2022-09-21T07:26:34;6.70;99.90
37408;DHT22;24866;50.248;8.252;2022-09-21T07:29:04;6.60;99.90
37408;DHT22;24866;50.248;8.252;2022-09-21T07:31:34;6.60;99.90
37408;DHT22;24866;50.248;8.252;2022-09-21T07:34:04;6.70;99.90
37408;DHT22;24866;50.248;8.252;2022-09-21T07:36:36;6.70;99.90
37408;DHT22;24866;50.248;8.252;2022-09-21T07:39:07;7.00;99.90
37408;DHT22;24866;50.248;8.252;2022-09-21T07:41:37;7.20;99.90
37408;DHT22;24866;50.248;8.252;2022-09-21T07:44:07;7.10;99.90
37408;DHT22;24866;50.248;8.252;2022-09-21T07:46:37;7.00;99.90
37408;DHT22;24866;50.248;8.252;2022-09-21T07:49:10;6.90;99.90
37408;DHT22;24866;50.248;8.252;2022-09-21T07:51:42;7.20;99.90
37408;DHT22;24866;50.248;8.252;2022-09-21T07:54:12;7.50;99.90
37408;DHT22;24866;50.248;8.252;2022-09-21T07:56:43;7.50;99.90
37408;DHT22;24866;50.248;8.252;2022-09-21T07:59:34;7.60;99.90
37408;DHT22;24866;50.248;8.252;2022-09-21T08:02:03;7.80;99.90
37408;DHT22;24866;50.248;8.252;2022-09-21T08:04:33;8.10;99.90
37408;DHT22;24866;50.248;8.252;2022-09-21T08:07:04;7.90;99.90
37408;DHT22;24866;50.248;8.252;2022-09-21T08:09:34;7.80;99.90
37408;DHT22;24866;50.248;8.252;2022-09-21T08:12:04;7.50;99.90
37408;DHT22;24866;50.248;8.252;2022-09-21T08:14:34;7.30;99.90
37408;DHT22;24866;50.248;8.252;2022-09-21T08:17:04;7.40;99.90
37408;DHT22;24866;50.248;8.252;2022-09-21T08:19:34;7.70;99.90
37408;DHT22;24866;50.248;8.252;2022-09-21T08:22:06;7.30;99.90
37408;DHT22;24866;50.248;8.252;2022-09-21T08:24:35;7.50;99.90
37408;DHT22;24866;50.248;8.252;2022-09-21T08:27:06;7.90;99.90
37408;DHT22;24866;50.248;8.252;2022-09-21T08:29:36;8.10;99.90
37408;DHT22;24866;50.248;8.252;2022-09-21T08:32:06;8.20;99.90
37408;DHT22;24866;50.248;8.252;2022-09-21T08:34:37;8.20;99.90
37408;DHT22;24866;50.248;8.252;2022-09-21T08:37:08;8.20;99.90
37408;DHT22;24866;50.248;8.252;2022-09-21T08:39:38;8.40;99.90
37408;DHT22;24866;50.248;8.252;2022-09-21T08:42:29;8.10;99.90
37408;DHT22;24866;50.248;8.252;2022-09-21T08:45:04;8.00;99.90
37408;DHT22;24866;50.248;8.252;2022-09-21T08:47:40;8.30;99.90
37408;DHT22;24866;50.248;8.252;2022-09-21T08:50:25;8.30;99.90
37408;DHT22;24866;50.248;8.252;2022-09-21T08:53:02;8.50;99.90
37408;DHT22;24866;50.248;8.252;2022-09-21T08:55:33;8.60;99.90
37408;DHT22;24866;50.248;8.252;2022-09-21T08:58:04;8.90;99.90
37408;DHT22;24866;50.248;8.252;2022-09-21T09:00:38;8.70;99.90
37408;DHT22;24866;50.248;8.252;2022-09-21T09:03:28;8.60;99.90
37408;DHT22;24866;50.248;8.252;2022-09-21T09:06:07;8.80;99.90
37408;DHT22;24866;50.248;8.252;2022-09-21T09:08:54;9.00;99.90
37408;DHT22;24866;50.248;8.252;2022-09-21T09:11:40;9.00;99.90
37408;DHT22;24866;50.248;8.252;2022-09-21T09:17:30;9.10;99.90
37408;DHT22;24866;50.248;8.252;2022-09-21T09:20:05;8.90;99.90
37408;DHT22;24866;50.248;8.252;2022-09-21T09:22:43;8.80;99.90
37408;DHT22;24866;50.248;8.252;2022-09-21T09:25:19;9.20;99.90
37408;DHT22;24866;50.248;8.252;2022-09-21T09:27:52;9.00;99.90
37408;DHT22;24866;50.248;8.252;2022-09-21T09:30:24;8.90;99.90
37408;DHT22;24866;50.248;8.252;2022-09-21T09:32:57;9.00;99.90
37408;DHT22;24866;50.248;8.252;2022-09-21T09:35:31;9.40;99.90
37408;DHT22;24866;50.248;8.252;2022-09-21T09:38:10;9.50;99.90
37408;DHT22;24866;50.248;8.252;2022-09-21T09:41:14;9.70;99.90
37408;DHT22;24866;50.248;8.252;2022-09-21T09:43:56;9.80;99.90
37408;DHT22;24866;50.248;8.252;2022-09-21T09:46:32;10.10;99.90
37408;DHT22;24866;50.248;8.252;2022-09-21T09:49:14;10.40;99.90
37408;DHT22;24866;50.248;8.252;2022-09-21T09:51:47;10.20;99.90
37408;DHT22;24866;50.248;8.252;2022-09-21T09:54:20;10.60;99.90
37408;DHT22;24866;50.248;8.252;2022-09-21T09:56:51;10.00;99.90
37408;DHT22;24866;50.248;8.252;2022-09-21T09:59:27;9.70;99.90
37408;DHT22;24866;50.248;8.252;2022-09-21T10:02:01;10.60;99.90
37408;DHT22;24866;50.248;8.252;2022-09-21T10:04:31;10.80;99.90
37408;DHT22;24866;50.248;8.252;2022-09-21T10:07:02;10.90;99.90
37408;DHT22;24866;50.248;8.252;2022-09-21T10:09:33;11.50;99.90
37408;DHT22;24866;50.248;8.252;2022-09-21T10:12:18;10.70;99.90
37408;DHT22;24866;50.248;8.252;2022-09-21T10:14:55;10.80;99.90
37408;DHT22;24866;50.248;8.252;2022-09-21T10:17:28;11.10;99.90
37408;DHT22;24866;50.248;8.252;2022-09-21T10:19:59;11.30;99.90
37408;DHT22;24866;50.248;8.252;2022-09-21T10:22:29;12.10;99.90
37408;DHT22;24866;50.248;8.252;2022-09-21T10:25:00;12.50;99.90
37408;DHT22;24866;50.248;8.252;2022-09-21T10:27:35;11.80;99.90
37408;DHT22;24866;50.248;8.252;2022-09-21T10:30:33;11.90;99.90
37408;DHT22;24866;50.248;8.252;2022-09-21T10:33:17;12.40;99.90
37408;DHT22;24866;50.248;8.252;2022-09-21T10:35:49;12.90;99.90
37408;DHT22;24866;50.248;8.252;2022-09-21T10:38:21;12.90;99.90
37408;DHT22;24866;50.248;8.252;2022-09-21T10:40:55;12.50;99.90
37408;DHT22;24866;50.248;8.252;2022-09-21T10:43:31;13.20;99.90
37408;DHT22;24866;50.248;8.252;2022-09-21T10:46:03;13.20;99.90
37408;DHT22;24866;50.248;8.252;2022-09-21T10:48:32;13.20;99.90
37408;DHT22;24866;50.248;8.252;2022-09-21T10:51:03;13.80;99.90
37408;DHT22;24866;50.248;8.252;2022-09-21T10:53:35;14.20;99.90
37408;DHT22;24866;50.248;8.252;2022-09-21T10:56:07;14.30;99.90
37408;DHT22;24866;50.248;8.252;2022-09-21T10:59:19;13.80;99.90
37408;DHT22;24866;50.248;8.252;2022-09-21T11:01:52;14.20;99.90
37408;DHT22;24866;50.248;8.252;2022-09-21T11:04:29;14.40;99.90
37408;DHT22;24866;50.248;8.252;2022-09-21T11:07:09;14.40;99.90
37408;DHT22;24866;50.248;8.252;2022-09-21T11:09:47;14.70;99.90
37408;DHT22;24866;50.248;8.252;2022-09-21T11:12:47;14.50;99.90
37408;DHT22;24866;50.248;8.252;2022-09-21T11:15:29;14.50;99.90
37408;DHT22;24866;50.248;8.252;2022-09-21T11:18:05;14.80;99.90
37408;DHT22;24866;50.248;8.252;2022-09-21T11:20:46;14.90;99.90
37408;DHT22;24866;50.248;8.252;2022-09-21T11:23:25;15.20;99.90
37408;DHT22;24866;50.248;8.252;2022-09-21T11:26:03;15.50;99.90
37408;DHT22;24866;50.248;8.252;2022-09-21T11:28:44;15.70;99.90
37408;DHT22;24866;50.248;8.252;2022-09-21T11:37:34;15.70;99.90
37408;DHT22;24866;50.248;8.252;2022-09-21T11:40:24;15.30;99.90
37408;DHT22;24866;50.248;8.252;2022-09-21T11:43:05;15.80;99.90
37408;DHT22;24866;50.248;8.252;2022-09-21T11:45:48;16.50;99.90
37408;DHT22;24866;50.248;8.252;2022-09-21T11:48:31;16.60;99.90
37408;DHT22;24866;50.248;8.252;2022-09-21T11:51:16;16.00;99.90
37408;DHT22;24866;50.248;8.252;2022-09-21T11:54:16;17.10;99.90
37408;DHT22;24866;50.248;8.252;2022-09-21T11:56:52;17.00;99.90
37408;DHT22;24866;50.248;8.252;2022-09-21T11:59:39;16.70;99.90
37408;DHT22;24866;50.248;8.252;2022-09-21T12:02:41;16.40;99.90
37408;DHT22;24866;50.248;8.252;2022-09-21T12:05:20;16.20;99.90
37408;DHT22;24866;50.248;8.252;2022-09-21T12:08:15;16.60;99.90
37408;DHT22;24866;50.248;8.252;2022-09-21T12:10:55;17.00;99.90
37408;DHT22;24866;50.248;8.252;2022-09-21T12:13:33;17.60;99.90
37408;DHT22;24866;50.248;8.252;2022-09-21T12:16:09;16.70;99.90
37408;DHT22;24866;50.248;8.252;2022-09-21T12:18:45;17.30;99.90
37408;DHT22;24866;50.248;8.252;2022-09-21T12:21:20;17.00;99.90
37408;DHT22;24866;50.248;8.252;2022-09-21T12:23:53;17.30;99.90
37408;DHT22;24866;50.248;8.252;2022-09-21T12:26:26;17.10;99.90
37408;DHT22;24866;50.248;8.252;2022-09-21T12:29:01;17.50;99.90
37408;DHT22;24866;50.248;8.252;2022-09-21T12:31:37;17.00;99.90
37408;DHT22;24866;50.248;8.252;2022-09-21T12:34:12;18.10;99.90
37408;DHT22;24866;50.248;8.252;2022-09-21T12:36:57;18.40;99.90
37408;DHT22;24866;50.248;8.252;2022-09-21T12:39:31;18.30;99.90
37408;DHT22;24866;50.248;8.252;2022-09-21T12:42:10;18.00;99.90
37408;DHT22;24866;50.248;8.252;2022-09-21T12:44:49;18.00;99.90
37408;DHT22;24866;50.248;8.252;2022-09-21T12:47:27;17.90;99.90
37408;DHT22;24866;50.248;8.252;2022-09-21T12:50:02;17.70;99.90
37408;DHT22;24866;50.248;8.252;2022-09-21T12:52:35;17.70;99.90
37408;DHT22;24866;50.248;8.252;2022-09-21T12:55:27;17.80;99.90
37408;DHT22;24866;50.248;8.252;2022-09-21T12:58:12;17.90;99.90
37408;DHT22;24866;50.248;8.252;2022-09-21T13:00:51;17.60;99.90
37408;DHT22;24866;50.248;8.252;2022-09-21T13:03:29;17.70;99.90
37408;DHT22;24866;50.248;8.252;2022-09-21T13:06:29;18.00;99.90
37408;DHT22;24866;50.248;8.252;2022-09-21T13:09:05;17.40;99.90
37408;DHT22;24866;50.248;8.252;2022-09-21T13:11:50;17.60;99.90
37408;DHT22;24866;50.248;8.252;2022-09-21T13:14:21;17.70;99.90
37408;DHT22;24866;50.248;8.252;2022-09-21T13:16:54;17.50;99.90
37408;DHT22;24866;50.248;8.252;2022-09-21T13:19:28;17.70;99.90
37408;DHT22;24866;50.248;8.252;2022-09-21T13:22:19;17.60;99.90
37408;DHT22;24866;50.248;8.252;2022-09-21T13:25:00;17.80;99.90
37408;DHT22;24866;50.248;8.252;2022-09-21T13:28:05;16.90;99.90
37408;DHT22;24866;50.248;8.252;2022-09-21T13:30:48;16.90;99.90
37408;DHT22;24866;50.248;8.252;2022-09-21T13:33:30;17.20;99.90
37408;DHT22;24866;50.248;8.252;2022-09-21T13:39:03;16.30;99.90
37408;DHT22;24866;50.248;8.252;2022-09-21T13:41:43;16.80;99.90
37408;DHT22;24866;50.248;8.252;2022-09-21T13:44:20;17.40;99.90
37408;DHT22;24866;50.248;8.252;2022-09-21T13:46:52;17.50;99.90
37408;DHT22;24866;50.248;8.252;2022-09-21T13:49:43;17.30;99.90
37408;DHT22;24866;50.248;8.252;2022-09-21T13:52:30;17.40;99.90
37408;DHT22;24866;50.248;8.252;2022-09-21T13:55:02;17.30;99.90
37408;DHT22;24866;50.248;8.252;2022-09-21T13:57:38;17.10;57.20
37408;DHT22;24866;50.248;8.252;2022-09-21T14:00:32;17.20;1.00
37408;DHT22;24866;50.248;8.252;2022-09-21T14:03:04;17.00;99.90
37408;DHT22;24866;50.248;8.252;2022-09-21T14:05:38;17.10;99.90
37408;DHT22;24866;50.248;8.252;2022-09-21T14:08:20;16.90;1.00
37408;DHT22;24866;50.248;8.252;2022-09-21T14:10:54;17.00;97.60
37408;DHT22;24866;50.248;8.252;2022-09-21T14:13:30;17.00;1.00
37408;DHT22;24866;50.248;8.252;2022-09-21T14:20:01;17.20;95.30
37408;DHT22;24866;50.248;8.252;2022-09-21T14:22:34;17.40;99.90
37408;DHT22;24866;50.248;8.252;2022-09-21T14:25:26;17.40;1.00
37408;DHT22;24866;50.248;8.252;2022-09-21T14:28:01;16.90;99.90
37408;DHT22;24866;50.248;8.252;2022-09-21T14:30:34;16.60;99.90
37408;DHT22;24866;50.248;8.252;2022-09-21T14:36:08;17.20;1.00
37408;DHT22;24866;50.248;8.252;2022-09-21T14:38:44;17.10;99.90
37408;DHT22;24866;50.248;8.252;2022-09-21T14:41:21;17.20;99.90
37408;DHT22;24866;50.248;8.252;2022-09-21T14:43:53;17.40;1.00
37408;DHT22;24866;50.248;8.252;2022-09-21T14:46:41;17.60;1.00
37408;DHT22;24866;50.248;8.252;2022-09-21T14:49:44;17.90;1.00
37408;DHT22;24866;50.248;8.252;2022-09-21T14:52:26;18.00;1.00
37408;DHT22;24866;50.248;8.252;2022-09-21T14:55:08;18.10;1.00
37408;DHT22;24866;50.248;8.252;2022-09-21T14:57:55;18.10;1.00
37408;DHT22;24866;50.248;8.252;2022-09-21T15:00:36;18.30;1.00
37408;DHT22;24866;50.248;8.252;2022-09-21T15:03:43;18.50;99.90
37408;DHT22;24866;50.248;8.252;2022-09-21T15:06:21;18.60;99.90
37408;DHT22;24866;50.248;8.252;2022-09-21T15:09:33;18.50;99.90
37408;DHT22;24866;50.248;8.252;2022-09-21T15:12:27;18.40;1.00
37408;DHT22;24866;50.248;8.252;2022-09-21T15:15:08;18.40;1.00
37408;DHT22;24866;50.248;8.252;2022-09-21T15:17:50;18.50;1.00
37408;DHT22;24866;50.248;8.252;2022-09-21T15:20:22;18.30;1.00
37408;DHT22;24866;50.248;8.252;2022-09-21T15:22:53;18.10;1.00
37408;DHT22;24866;50.248;8.252;2022-09-21T15:25:24;18.20;1.00
37408;DHT22;24866;50.248;8.252;2022-09-21T15:27:55;18.40;1.00
37408;DHT22;24866;50.248;8.252;2022-09-21T15:30:27;18.70;1.00
37408;DHT22;24866;50.248;8.252;2022-09-21T15:32:59;18.70;99.90
37408;DHT22;24866;50.248;8.252;2022-09-21T15:35:32;18.90;99.90
37408;DHT22;24866;50.248;8.252;2022-09-21T15:38:02;18.80;99.90
37408;DHT22;24866;50.248;8.252;2022-09-21T15:40:35;19.00;99.90
37408;DHT22;24866;50.248;8.252;2022-09-21T15:43:16;19.30;99.90
37408;DHT22;24866;50.248;8.252;2022-09-21T15:45:50;18.90;72.90
37408;DHT22;24866;50.248;8.252;2022-09-21T15:48:22;19.00;99.90
37408;DHT22;24866;50.248;8.252;2022-09-21T15:50:58;19.30;99.90
37408;DHT22;24866;50.248;8.252;2022-09-21T15:53:32;19.30;99.90
37408;DHT22;24866;50.248;8.252;2022-09-21T15:56:04;19.10;1.00
37408;DHT22;24866;50.248;8.252;2022-09-21T15:58:36;19.00;1.00
37408;DHT22;24866;50.248;8.252;2022-09-21T16:01:09;18.90;1.00
37408;DHT22;24866;50.248;8.252;2022-09-21T16:03:41;19.20;1.00
37408;DHT22;24866;50.248;8.252;2022-09-21T16:06:26;19.00;1.00
37408;DHT22;24866;50.248;8.252;2022-09-21T16:08:56;19.00;1.00
37408;DHT22;24866;50.248;8.252;2022-09-21T16:11:33;18.90;1.00
37408;DHT22;24866;50.248;8.252;2022-09-21T16:14:10;19.20;1.00
37408;DHT22;24866;50.248;8.252;2022-09-21T16:17:17;19.00;1.00
37408;DHT22;24866;50.248;8.252;2022-09-21T16:20:15;18.80;99.90
37408;DHT22;24866;50.248;8.252;2022-09-21T16:22:48;18.80;99.90
37408;DHT22;24866;50.248;8.252;2022-09-21T16:25:25;18.90;1.00
37408;DHT22;24866;50.248;8.252;2022-09-21T16:27:59;19.00;99.90
37408;DHT22;24866;50.248;8.252;2022-09-21T16:30:45;19.00;99.90
37408;DHT22;24866;50.248;8.252;2022-09-21T16:33:37;19.00;99.90
37408;DHT22;24866;50.248;8.252;2022-09-21T16:39:23;18.80;99.90
37408;DHT22;24866;50.248;8.252;2022-09-21T16:41:55;18.60;99.90
37408;DHT22;24866;50.248;8.252;2022-09-21T16:44:27;18.00;1.00
37408;DHT22;24866;50.248;8.252;2022-09-21T16:47:00;17.00;1.00
37408;DHT22;24866;50.248;8.252;2022-09-21T16:49:32;17.10;99.90
37408;DHT22;24866;50.248;8.252;2022-09-21T16:52:02;17.40;99.90
37408;DHT22;24866;50.248;8.252;2022-09-21T16:54:34;17.40;1.00
37408;DHT22;24866;50.248;8.252;2022-09-21T16:57:05;17.40;1.00
37408;DHT22;24866;50.248;8.252;2022-09-21T16:59:35;17.30;1.00